Terminal Aerodrome Forecast
Issued by NWS Charleston, SC

Home | Current Version | Previous Version | Text Only | Print | Product List | Glossary On
Versions: 1 2 3 4 5 6 7 8 9 10 11 12 13 14 15 16
000
FTUS42 KCHS 170522
TAFSAV
TAF
KSAV 170522Z 1706/1806 26005KT P6SM FEW250
     FM172000 20006KT P6SM SCT045 BKN250
     FM180000 19004KT P6SM SCT040=

USA.gov is the U.S. government's official web portal to all federal, state and local government web resources and services.